Time;durP1;ratioP1;P1;durP2;ratioP2;P2;SDS_P1;SDS_P2;PMS_P1;PMS_P2;Temp;Humidity;BMP_temperature;BMP_pressure;BME280_temperature;BME280_humidity;BME280_pressure;Samples;Min_cycle;Max_cycle;Signal;HPM_P1;HPM_P2
2023/06/29 00:00:13;;;;;;;17.20;12.53;;;22.40;23.20;;;;;;5054863;28;20899;-79
2023/06/29 00:02:39;;;;;;;23.77;13.80;;;22.40;20.60;;;;;;5049172;28;20936;-79
2023/06/29 00:05:05;;;;;;;17.43;11.40;;;22.50;45.60;;;;;;5058201;28;20461;-80
2023/06/29 00:07:33;;;;;;;16.57;11.73;;;22.50;85.00;;;;;;5054635;28;20450;-80
2023/06/29 00:09:58;;;;;;;23.10;12.37;;;22.50;99.90;;;;;;5052259;28;20474;-79
2023/06/29 00:12:24;;;;;;;21.30;12.03;;;22.50;99.90;;;;;;5058505;28;20434;-79
2023/06/29 00:14:49;;;;;;;20.83;12.40;;;22.50;99.90;;;;;;5053916;28;20193;-79
2023/06/29 00:17:16;;;;;;;19.03;11.73;;;22.40;99.90;;;;;;5055561;28;20575;-80
2023/06/29 00:19:42;;;;;;;17.13;12.33;;;22.40;99.90;;;;;;5054236;28;20228;-79
2023/06/29 00:22:09;;;;;;;20.63;13.30;;;22.40;99.90;;;;;;5055187;28;20879;-79
2023/06/29 00:24:42;;;;;;;23.80;12.13;;;22.40;99.90;;;;;;5052784;28;20176;-79
2023/06/29 00:27:08;;;;;;;15.33;12.40;;;22.30;99.90;;;;;;5055427;28;20535;-80
2023/06/29 00:29:34;;;;;;;14.50;12.57;;;22.30;99.90;;;;;;5054913;28;21035;-80
2023/06/29 00:31:59;;;;;;;16.20;12.27;;;22.30;99.90;;;;;;5054456;28;20496;-79
2023/06/29 00:34:25;;;;;;;17.57;11.90;;;22.30;99.90;;;;;;5054996;28;20192;-80
2023/06/29 00:36:50;;;;;;;17.93;12.63;;;22.20;99.90;;;;;;5056324;28;20196;-79
2023/06/29 00:39:16;;;;;;;17.87;11.97;;;22.20;99.90;;;;;;5057071;28;20209;-80
2023/06/29 00:41:41;;;;;;;19.97;12.30;;;22.20;99.90;;;;;;5053013;28;20317;-79
2023/06/29 00:44:08;;;;;;;16.80;12.50;;;22.20;99.90;;;;;;5058226;28;20193;-79
2023/06/29 00:46:34;;;;;;;17.63;12.83;;;22.20;99.90;;;;;;5054787;28;20205;-80
2023/06/29 00:49:00;;;;;;;15.83;12.10;;;22.10;99.90;;;;;;5057771;28;20465;-80
2023/06/29 00:51:26;;;;;;;15.43;12.40;;;22.10;99.90;;;;;;5056888;28;20223;-79
2023/06/29 00:53:51;;;;;;;18.80;12.10;;;22.10;99.90;;;;;;5058417;28;20441;-80
2023/06/29 00:56:17;;;;;;;17.60;13.27;;;22.10;99.90;;;;;;5056874;28;20565;-80
2023/06/29 00:58:43;;;;;;;22.00;12.37;;;22.00;99.90;;;;;;5052732;28;20223;-79
2023/06/29 01:01:09;;;;;;;16.93;12.63;;;22.00;99.90;;;;;;5038899;28;20188;-79
2023/06/29 01:03:36;;;;;;;21.13;12.13;;;21.90;99.90;;;;;;5057313;28;20437;-79
2023/06/29 01:06:05;;;;;;;27.27;13.30;;;21.90;1.00;;;;;;5055870;28;20462;-78
2023/06/29 01:08:38;;;;;;;16.40;11.30;;;21.90;1.00;;;;;;5056649;28;20496;-79
2023/06/29 01:11:03;;;;;;;19.53;12.23;;;21.80;1.00;;;;;;5057791;28;20475;-78
2023/06/29 01:13:31;;;;;;;17.33;11.33;;;21.80;1.00;;;;;;5058210;28;20464;-80
2023/06/29 01:15:59;;;;;;;19.60;11.33;;;21.80;1.00;;;;;;5058383;28;20187;-80
2023/06/29 01:18:26;;;;;;;16.37;11.30;;;21.80;1.00;;;;;;5051744;28;20539;-80
2023/06/29 01:20:53;;;;;;;20.27;11.97;;;21.70;1.00;;;;;;5057832;28;20509;-80
2023/06/29 01:23:36;;;;;;;20.87;12.50;;;21.70;1.00;;;;;;5056258;28;20448;-80
2023/06/29 01:26:03;;;;;;;16.10;11.57;;;21.70;1.00;;;;;;5053286;28;20537;-78
2023/06/29 01:28:31;;;;;;;20.93;11.57;;;21.70;1.00;;;;;;5056512;28;20616;-79
2023/06/29 01:31:02;;;;;;;19.63;12.50;;;21.70;1.00;;;;;;5058635;28;20532;-79
2023/06/29 01:33:29;;;;;;;18.53;11.93;;;21.70;1.00;;;;;;5054213;28;20433;-79
2023/06/29 01:36:08;;;;;;;16.50;11.73;;;21.70;1.00;;;;;;5058550;28;20428;-79
2023/06/29 01:38:39;;;;;;;19.13;12.67;;;21.70;1.00;;;;;;5055516;28;20523;-79
2023/06/29 01:41:07;;;;;;;22.73;12.60;;;21.60;1.00;;;;;;5057434;28;20455;-78
2023/06/29 01:43:35;;;;;;;24.90;13.40;;;21.60;1.00;;;;;;5057180;28;20414;-78
2023/06/29 01:46:01;;;;;;;24.47;13.13;;;21.60;1.70;;;;;;5058039;28;20437;-80
2023/06/29 01:48:27;;;;;;;18.53;11.90;;;21.60;16.70;;;;;;5058564;28;20456;-80
2023/06/29 01:50:53;;;;;;;24.30;12.67;;;21.60;99.90;;;;;;5049803;28;20463;-78
2023/06/29 01:53:19;;;;;;;23.50;12.10;;;21.50;99.90;;;;;;5057570;28;20417;-80
2023/06/29 01:55:44;;;;;;;20.37;11.90;;;21.50;99.90;;;;;;5055875;28;20176;-79
2023/06/29 01:58:10;;;;;;;19.73;13.20;;;21.50;99.90;;;;;;5061628;28;20452;-80
2023/06/29 02:00:36;;;;;;;22.30;11.73;;;21.50;99.90;;;;;;5050070;28;20211;-79
2023/06/29 02:03:01;;;;;;;21.10;12.40;;;21.60;99.90;;;;;;5057865;28;20186;-80
2023/06/29 02:05:27;;;;;;;22.17;12.43;;;21.50;99.90;;;;;;5057194;28;20667;-79
2023/06/29 02:07:53;;;;;;;18.13;13.03;;;21.50;99.90;;;;;;5052624;28;20205;-79
2023/06/29 02:10:18;;;;;;;19.93;11.70;;;21.50;99.90;;;;;;5054739;28;20684;-79
2023/06/29 02:12:44;;;;;;;20.53;12.80;;;21.50;99.90;;;;;;5057683;28;20237;-79
2023/06/29 02:15:10;;;;;;;18.93;12.57;;;21.40;99.90;;;;;;5056320;28;20262;-80
2023/06/29 02:17:35;;;;;;;22.73;13.00;;;21.40;99.90;;;;;;5056316;28;20763;-79
2023/06/29 02:20:01;;;;;;;20.50;12.83;;;21.40;99.90;;;;;;5052096;28;20456;-80
2023/06/29 02:22:26;;;;;;;22.57;13.77;;;21.40;99.90;;;;;;5054961;28;20199;-79
2023/06/29 02:24:52;;;;;;;29.50;14.70;;;21.40;99.90;;;;;;5054971;28;20668;-80
2023/06/29 02:27:17;;;;;;;15.70;12.10;;;21.30;1.00;;;;;;5056122;28;20191;-80
2023/06/29 02:29:43;;;;;;;19.50;12.13;;;21.30;1.00;;;;;;5055777;28;20211;-79
2023/06/29 02:32:08;;;;;;;20.23;13.07;;;21.30;1.00;;;;;;5057054;28;20715;-80
2023/06/29 02:34:34;;;;;;;26.50;12.50;;;21.30;1.00;;;;;;5056676;28;20193;-79
2023/06/29 02:36:59;;;;;;;17.97;11.40;;;21.30;1.00;;;;;;5052954;28;20176;-81
2023/06/29 02:39:25;;;;;;;24.37;12.90;;;21.30;1.00;;;;;;5051929;28;20201;-81
2023/06/29 02:41:50;;;;;;;22.50;13.70;;;21.30;1.00;;;;;;5050849;28;20193;-81
2023/06/29 02:44:16;;;;;;;27.60;13.20;;;21.30;1.00;;;;;;5056265;28;20197;-80
2023/06/29 02:46:41;;;;;;;23.30;12.37;;;21.30;1.00;;;;;;5056172;28;20201;-80
2023/06/29 02:49:07;;;;;;;17.23;12.30;;;21.30;1.00;;;;;;5056765;28;20593;-79
2023/06/29 02:51:32;;;;;;;20.10;11.87;;;21.20;1.00;;;;;;5055645;28;20791;-81
2023/06/29 02:53:58;;;;;;;21.70;12.57;;;21.20;1.00;;;;;;5049993;28;20186;-80
2023/06/29 02:56:23;;;;;;;24.20;13.90;;;21.20;22.50;;;;;;5052236;28;20205;-80
2023/06/29 02:58:49;;;;;;;25.13;13.00;;;21.10;99.90;;;;;;5049212;28;20205;-80
2023/06/29 03:01:14;;;;;;;19.33;11.30;;;21.10;99.90;;;;;;5051753;28;20271;-80
2023/06/29 03:03:40;;;;;;;21.00;13.40;;;21.10;99.90;;;;;;5051980;28;20180;-81
2023/06/29 03:06:06;;;;;;;27.87;12.47;;;21.00;1.00;;;;;;5050406;28;20235;-79
2023/06/29 03:08:31;;;;;;;19.07;12.93;;;21.00;1.00;;;;;;5045726;28;20228;-80
2023/06/29 03:10:57;;;;;;;26.80;12.80;;;21.00;1.00;;;;;;5034955;28;20207;-80
2023/06/29 03:13:22;;;;;;;19.70;11.87;;;21.00;1.00;;;;;;5051840;28;20210;-80
2023/06/29 03:15:48;;;;;;;30.13;13.03;;;21.00;1.00;;;;;;5051140;28;20238;-80
2023/06/29 03:18:13;;;;;;;20.70;12.87;;;21.00;1.00;;;;;;5050824;28;20202;-80
2023/06/29 03:20:39;;;;;;;20.20;12.27;;;21.00;1.00;;;;;;5049883;28;20566;-79
2023/06/29 03:23:04;;;;;;;25.10;12.30;;;21.10;1.00;;;;;;5051085;28;20193;-79
2023/06/29 03:25:30;;;;;;;23.60;12.90;;;21.10;99.90;;;;;;5046572;28;20244;-80
2023/06/29 03:27:56;;;;;;;26.70;12.33;;;21.10;99.90;;;;;;5049874;28;20206;-81
2023/06/29 03:30:21;;;;;;;27.73;13.20;;;21.10;99.90;;;;;;5051014;28;20255;-79
2023/06/29 03:32:47;;;;;;;24.80;13.10;;;21.10;99.90;;;;;;5053637;28;20195;-78
2023/06/29 03:35:12;;;;;;;21.10;11.33;;;21.10;99.90;;;;;;5058024;28;20173;-80
2023/06/29 03:37:38;;;;;;;26.00;12.40;;;21.10;99.90;;;;;;5038923;28;20216;-80
2023/06/29 03:40:04;;;;;;;26.50;12.07;;;21.20;99.90;;;;;;5058254;28;20181;-80
2023/06/29 03:42:30;;;;;;;23.23;13.33;;;21.20;92.20;;;;;;5062684;28;20178;-79
2023/06/29 03:44:55;;;;;;;29.63;12.13;;;21.20;15.90;;;;;;5054346;28;20534;-79
2023/06/29 03:47:21;;;;;;;30.23;12.97;;;21.20;1.00;;;;;;5063253;28;20624;-80
2023/06/29 03:49:47;;;;;;;24.07;12.67;;;21.20;1.00;;;;;;5061264;28;20284;-81
2023/06/29 03:52:12;;;;;;;23.00;11.57;;;21.30;1.00;;;;;;5062574;28;20184;-80
2023/06/29 03:54:38;;;;;;;19.93;12.03;;;21.30;1.00;;;;;;5061207;28;20187;-80
2023/06/29 03:57:04;;;;;;;29.03;12.50;;;21.30;1.00;;;;;;5067581;28;20225;-80
2023/06/29 03:59:29;;;;;;;22.17;13.77;;;21.30;1.00;;;;;;5063033;28;20190;-80
2023/06/29 04:01:55;;;;;;;27.73;11.80;;;21.40;1.00;;;;;;5053598;28;20436;-80
2023/06/29 04:04:20;;;;;;;31.47;13.53;;;21.40;1.00;;;;;;5061729;28;20286;-80
2023/06/29 04:06:46;;;;;;;26.23;13.37;;;21.40;1.00;;;;;;5061121;28;20188;-80
2023/06/29 04:09:11;;;;;;;18.57;12.43;;;21.40;99.90;;;;;;5061915;28;20209;-80
2023/06/29 04:11:37;;;;;;;25.30;12.67;;;21.40;99.90;;;;;;5061791;28;20218;-80
2023/06/29 04:14:03;;;;;;;20.20;12.37;;;21.40;99.90;;;;;;5063504;28;20189;-80
2023/06/29 04:16:28;;;;;;;21.87;12.70;;;21.40;99.90;;;;;;5065903;28;20567;-80
2023/06/29 04:18:54;;;;;;;19.33;12.13;;;21.40;99.90;;;;;;5065741;28;20198;-80
2023/06/29 04:21:19;;;;;;;16.50;11.70;;;21.40;99.90;;;;;;5061725;28;20186;-80
2023/06/29 04:23:45;;;;;;;23.53;12.93;;;21.40;99.90;;;;;;5066186;28;20184;-80
2023/06/29 04:26:10;;;;;;;21.30;12.20;;;21.40;99.90;;;;;;5061154;28;20709;-79
2023/06/29 04:28:36;;;;;;;20.17;12.17;;;21.40;1.00;;;;;;5061072;28;20211;-80
2023/06/29 04:31:01;;;;;;;24.50;13.00;;;21.40;1.00;;;;;;5061882;28;20209;-78
2023/06/29 04:33:27;;;;;;;21.90;12.97;;;21.40;1.00;;;;;;5060793;28;20229;-80
2023/06/29 04:35:53;;;;;;;26.50;12.60;;;21.40;1.00;;;;;;5059088;28;20218;-80
2023/06/29 04:38:19;;;;;;;24.03;13.93;;;21.40;1.00;;;;;;5060366;28;20672;-80
2023/06/29 04:40:45;;;;;;;25.40;12.07;;;21.50;1.00;;;;;;5060898;28;20414;-80
2023/06/29 04:43:12;;;;;;;21.80;13.47;;;21.50;99.90;;;;;;5060306;28;20478;-80
2023/06/29 04:45:40;;;;;;;21.93;12.27;;;21.50;99.90;;;;;;5050397;28;20262;-80
2023/06/29 04:48:06;;;;;;;20.27;12.50;;;21.60;99.90;;;;;;5058306;28;20512;-80
2023/06/29 04:50:35;;;;;;;27.73;13.27;;;21.70;99.90;;;;;;5058519;28;20595;-81
2023/06/29 04:53:08;;;;;;;26.67;13.57;;;21.70;99.90;;;;;;5055600;28;20668;-81
2023/06/29 04:55:36;;;;;;;26.47;13.37;;;21.70;99.90;;;;;;5057872;28;20517;-80
2023/06/29 04:58:03;;;;;;;25.33;13.03;;;21.80;99.90;;;;;;5056706;28;20465;-81
2023/06/29 05:00:29;;;;;;;21.53;12.20;;;21.80;99.90;;;;;;5056547;28;20437;-81
2023/06/29 05:02:54;;;;;;;22.97;13.50;;;21.80;65.00;;;;;;5057281;28;20434;-81
2023/06/29 05:05:20;;;;;;;22.93;12.13;;;21.90;33.70;;;;;;5058591;28;20480;-81
2023/06/29 05:07:45;;;;;;;24.53;12.23;;;21.90;16.50;;;;;;5057714;28;20261;-80
2023/06/29 05:10:11;;;;;;;23.80;12.80;;;21.90;7.90;;;;;;5053844;28;20273;-81
2023/06/29 05:12:36;;;;;;;15.30;11.80;;;21.90;29.80;;;;;;5057927;28;20187;-81
2023/06/29 05:15:02;;;;;;;22.80;12.23;;;21.90;53.30;;;;;;5057052;28;20244;-80
2023/06/29 05:17:27;;;;;;;23.50;12.90;;;21.80;86.20;;;;;;5059996;28;20535;-80
2023/06/29 05:19:53;;;;;;;23.57;12.60;;;21.90;99.90;;;;;;5058781;28;20683;-79
2023/06/29 05:22:18;;;;;;;20.80;12.93;;;21.90;99.90;;;;;;5058280;28;20674;-80
2023/06/29 05:24:44;;;;;;;26.63;12.47;;;21.90;99.90;;;;;;5055333;28;20653;-80
2023/06/29 05:27:10;;;;;;;20.23;12.40;;;21.90;90.90;;;;;;5058013;28;20190;-81
2023/06/29 05:29:37;;;;;;;18.53;11.63;;;21.90;85.90;;;;;;5057279;28;20210;-81
2023/06/29 05:32:03;;;;;;;23.60;12.67;;;21.90;99.90;;;;;;5058060;28;20468;-81
2023/06/29 05:34:29;;;;;;;18.40;12.27;;;22.00;96.40;;;;;;5052374;28;20435;-81
2023/06/29 05:36:54;;;;;;;18.23;12.27;;;22.10;40.30;;;;;;5058069;28;20442;-79
2023/06/29 05:39:20;;;;;;;17.00;12.17;;;22.20;1.00;;;;;;5058142;28;20276;-80
2023/06/29 05:41:45;;;;;;;21.50;12.00;;;22.40;1.00;;;;;;5054287;28;20178;-81
2023/06/29 05:44:11;;;;;;;17.20;12.30;;;22.70;1.00;;;;;;5058712;28;20193;-81
2023/06/29 05:46:37;;;;;;;21.47;12.03;;;23.10;99.90;;;;;;5057343;28;20198;-81
2023/06/29 05:49:03;;;;;;;15.30;11.90;;;23.50;99.90;;;;;;5057665;28;20293;-81
2023/06/29 05:51:29;;;;;;;16.30;12.00;;;23.80;30.40;;;;;;5059334;28;20221;-81
2023/06/29 05:53:55;;;;;;;23.10;11.73;;;24.20;1.00;;;;;;5037382;28;20450;-80
2023/06/29 05:56:21;;;;;;;22.20;12.33;;;24.50;1.00;;;;;;5053383;28;20200;-81
2023/06/29 05:58:46;;;;;;;20.77;13.50;;;24.70;1.00;;;;;;5054718;28;20830;-80
2023/06/29 06:01:12;;;;;;;24.13;14.00;;;24.90;1.00;;;;;;5056364;28;20310;-81
2023/06/29 06:03:39;;;;;;;19.60;12.40;;;25.10;99.90;;;;;;5050539;28;20209;-80
2023/06/29 06:06:05;;;;;;;21.53;13.50;;;25.50;99.90;;;;;;5055688;28;20440;-81
2023/06/29 06:08:30;;;;;;;20.37;13.37;;;25.70;99.90;;;;;;5053444;28;20456;-81
2023/06/29 06:10:56;;;;;;;20.50;13.97;;;25.70;99.90;;;;;;5051064;28;20278;-80
2023/06/29 06:13:21;;;;;;;17.00;13.33;;;25.70;99.90;;;;;;5055248;28;20252;-80
2023/06/29 06:15:47;;;;;;;24.63;14.20;;;25.70;99.90;;;;;;5057709;28;20184;-79
2023/06/29 06:18:13;;;;;;;18.27;14.33;;;25.60;99.90;;;;;;5052281;28;20262;-80
2023/06/29 06:20:38;;;;;;;24.03;13.60;;;25.40;99.90;;;;;;5058603;28;20187;-79
2023/06/29 06:23:04;;;;;;;21.17;15.73;;;25.10;99.90;;;;;;5049503;28;20196;-80
2023/06/29 06:25:29;;;;;;;22.70;13.93;;;24.90;99.90;;;;;;5051642;28;20182;-80
2023/06/29 06:27:55;;;;;;;22.93;15.03;;;24.80;99.90;;;;;;5049894;28;20211;-80
2023/06/29 06:30:23;;;;;;;25.13;14.23;;;24.70;99.90;;;;;;5051429;28;20231;-80
2023/06/29 06:32:49;;;;;;;19.03;14.80;;;24.60;99.90;;;;;;5049509;28;20378;-79
2023/06/29 06:35:16;;;;;;;17.10;13.40;;;24.60;99.90;;;;;;5052148;28;20433;-79
2023/06/29 06:37:41;;;;;;;19.73;14.07;;;24.50;99.90;;;;;;5050747;28;20439;-80
2023/06/29 06:40:07;;;;;;;23.50;15.63;;;24.50;99.90;;;;;;5046870;28;20441;-79
2023/06/29 06:42:36;;;;;;;23.07;15.10;;;24.50;99.90;;;;;;5050646;28;20191;-80
2023/06/29 06:45:05;;;;;;;21.93;15.30;;;24.50;99.90;;;;;;5052885;28;20431;-79
2023/06/29 06:47:35;;;;;;;23.67;15.90;;;24.40;99.90;;;;;;5054612;28;20504;-80
2023/06/29 06:50:02;;;;;;;20.27;14.93;;;24.40;99.90;;;;;;5054777;28;20795;-81
2023/06/29 06:52:27;;;;;;;23.90;17.30;;;24.40;99.90;;;;;;5057037;28;20419;-80
2023/06/29 06:54:55;;;;;;;23.90;16.57;;;24.30;99.90;;;;;;5054121;28;20426;-80
2023/06/29 06:57:21;;;;;;;20.27;16.73;;;24.30;99.90;;;;;;5056834;28;20198;-79
2023/06/29 06:59:47;;;;;;;23.40;16.20;;;24.20;99.90;;;;;;5056158;28;20536;-79
2023/06/29 07:02:13;;;;;;;21.67;15.57;;;24.20;99.90;;;;;;5056990;28;20253;-80
2023/06/29 07:04:39;;;;;;;22.77;17.70;;;24.10;99.90;;;;;;5057650;28;20187;-80
2023/06/29 07:07:06;;;;;;;27.00;16.97;;;24.10;99.90;;;;;;5057081;28;21054;-80
2023/06/29 07:09:31;;;;;;;26.00;15.87;;;24.10;99.90;;;;;;5056492;28;20955;-80
2023/06/29 07:11:58;;;;;;;21.77;15.90;;;24.20;1.00;;;;;;5054234;28;20465;-79
2023/06/29 07:14:24;;;;;;;22.87;16.40;;;24.20;1.00;;;;;;5057178;28;20268;-80
2023/06/29 07:16:49;;;;;;;22.80;15.30;;;24.20;1.00;;;;;;5056267;28;20895;-79
2023/06/29 07:19:15;;;;;;;23.63;16.17;;;24.20;1.00;;;;;;5056794;28;20222;-79
2023/06/29 07:21:42;;;;;;;23.10;15.80;;;24.30;1.00;;;;;;5059164;28;20180;-80
2023/06/29 07:24:08;;;;;;;23.13;16.93;;;24.30;1.00;;;;;;5060233;28;20430;-79
2023/06/29 07:26:34;;;;;;;24.70;16.67;;;24.40;1.00;;;;;;5056961;28;20462;-79
2023/06/29 07:28:59;;;;;;;22.90;15.33;;;24.50;99.90;;;;;;5057354;28;20881;-79
2023/06/29 07:31:29;;;;;;;26.83;16.13;;;24.50;99.90;;;;;;5056107;28;20469;-79
2023/06/29 07:33:55;;;;;;;21.97;15.80;;;24.60;99.90;;;;;;5057204;28;20646;-80
2023/06/29 07:36:22;;;;;;;23.60;16.00;;;24.80;99.90;;;;;;5039173;28;20435;-79
2023/06/29 07:38:48;;;;;;;22.33;16.37;;;24.90;99.90;;;;;;5055537;28;20444;-80
2023/06/29 07:41:15;;;;;;;26.30;17.73;;;25.10;99.90;;;;;;5053423;28;21062;-80
2023/06/29 07:43:42;;;;;;;22.50;17.57;;;25.20;99.90;;;;;;5049415;28;20448;-79
2023/06/29 07:46:08;;;;;;;22.70;16.03;;;25.40;99.90;;;;;;5052236;28;20435;-80
2023/06/29 07:48:33;;;;;;;29.17;17.83;;;25.60;99.90;;;;;;5051016;28;20447;-79
2023/06/29 07:50:59;;;;;;;22.53;17.50;;;25.80;99.90;;;;;;5049507;28;20204;-79
2023/06/29 07:53:25;;;;;;;23.77;17.43;;;26.10;99.90;;;;;;5053302;28;20554;-80
2023/06/29 07:55:50;;;;;;;20.40;17.30;;;26.50;99.90;;;;;;5052357;28;20547;-79
2023/06/29 07:58:17;;;;;;;24.67;15.47;;;26.90;99.90;;;;;;5052101;28;20193;-80
2023/06/29 08:00:42;;;;;;;25.63;16.90;;;27.20;99.90;;;;;;5052539;28;20644;-80
2023/06/29 08:03:08;;;;;;;27.07;16.83;;;27.70;99.90;;;;;;5053114;28;20416;-80
2023/06/29 08:05:33;;;;;;;23.83;15.67;;;28.50;99.90;;;;;;5053574;28;20185;-80
2023/06/29 08:07:59;;;;;;;23.53;16.40;;;29.00;99.90;;;;;;5057427;28;20597;-80
2023/06/29 08:10:25;;;;;;;19.60;16.47;;;29.40;99.90;;;;;;5055977;28;20553;-81
2023/06/29 08:12:50;;;;;;;24.80;16.20;;;30.10;99.90;;;;;;5057343;28;20173;-79
2023/06/29 08:15:16;;;;;;;19.67;16.03;;;30.30;99.90;;;;;;5057198;28;20189;-80
2023/06/29 08:17:41;;;;;;;17.83;14.80;;;30.60;99.90;;;;;;5056502;28;20178;-80
2023/06/29 08:20:11;;;;;;;19.73;13.80;;;30.70;99.90;;;;;;5054808;28;20250;-80
2023/06/29 08:22:40;;;;;;;23.23;15.10;;;31.10;99.90;;;;;;5060374;28;20178;-80
2023/06/29 08:25:06;;;;;;;17.67;14.27;;;32.30;99.90;;;;;;5060582;28;20412;-81
2023/06/29 08:27:32;;;;;;;19.73;14.70;;;33.10;99.90;;;;;;5062009;28;20530;-80
2023/06/29 08:29:58;;;;;;;19.17;14.77;;;32.90;99.90;;;;;;5060701;28;20182;-80
2023/06/29 08:32:23;;;;;;;18.97;15.70;;;32.40;99.90;;;;;;5061432;28;20186;-80
2023/06/29 08:34:49;;;;;;;18.47;14.23;;;32.00;99.90;;;;;;5061027;28;20173;-80
2023/06/29 08:37:14;;;;;;;20.47;14.90;;;31.80;99.90;;;;;;5057852;28;22487;-81
2023/06/29 08:39:40;;;;;;;19.30;14.17;;;31.50;99.90;;;;;;5060981;28;20585;-80
2023/06/29 08:42:06;;;;;;;20.13;15.60;;;31.40;99.90;;;;;;5059340;28;20722;-80
2023/06/29 08:44:33;;;;;;;22.50;15.83;;;31.30;99.90;;;;;;5060340;28;20424;-80
2023/06/29 08:47:01;;;;;;;17.47;14.43;;;31.10;99.90;;;;;;5056670;28;20467;-80
2023/06/29 08:49:27;;;;;;;20.27;15.10;;;30.90;99.90;;;;;;5060589;28;20525;-80
2023/06/29 08:51:59;;;;;;;19.33;15.70;;;30.70;99.90;;;;;;5055735;28;20468;-80
2023/06/29 08:54:29;;;;;;;21.53;14.30;;;30.60;99.90;;;;;;5059284;28;20444;-80
2023/06/29 08:56:55;;;;;;;26.53;16.03;;;30.60;99.90;;;;;;5060888;28;20419;-80
2023/06/29 08:59:22;;;;;;;18.80;16.27;;;30.90;99.90;;;;;;5060259;28;20473;-80
2023/06/29 09:01:48;;;;;;;21.27;15.20;;;33.00;99.90;;;;;;5060409;28;20418;-80
2023/06/29 09:04:14;;;;;;;18.17;15.50;;;34.80;99.90;;;;;;5060173;28;20423;-81
2023/06/29 09:06:40;;;;;;;22.63;15.27;;;35.60;99.90;;;;;;5061394;28;20258;-80
2023/06/29 09:09:07;;;;;;;17.43;14.50;;;35.40;97.20;;;;;;5057200;28;20590;-81
2023/06/29 09:11:34;;;;;;;16.93;14.10;;;35.40;94.20;;;;;;5060023;28;20528;-80
2023/06/29 09:14:07;;;;;;;15.10;13.30;;;35.60;92.40;;;;;;5059354;28;20424;-80
2023/06/29 09:16:36;;;;;;;17.10;12.63;;;35.80;90.60;;;;;;5060704;28;20435;-81
2023/06/29 09:19:05;;;;;;;18.07;15.80;;;36.60;87.90;;;;;;5059945;28;20444;-81
2023/06/29 09:21:33;;;;;;;16.00;13.80;;;36.70;81.20;;;;;;5060762;28;20416;-80
2023/06/29 09:23:59;;;;;;;19.33;14.23;;;36.80;75.60;;;;;;5060457;28;20411;-80
2023/06/29 09:26:28;;;;;;;21.70;14.23;;;36.90;71.00;;;;;;5053947;28;20439;-80
2023/06/29 09:28:59;;;;;;;15.70;12.93;;;38.00;69.80;;;;;;5059851;28;20232;-80
2023/06/29 09:31:32;;;;;;;14.63;13.00;;;39.00;64.30;;;;;;5058118;28;20459;-81
2023/06/29 09:34:16;;;;;;;16.13;13.40;;;39.70;60.10;;;;;;5057638;28;20784;-80
2023/06/29 09:36:42;;;;;;;15.90;14.03;;;40.00;56.30;;;;;;5058759;28;20483;-80
2023/06/29 09:39:07;;;;;;;14.70;12.90;;;39.60;52.70;;;;;;5055133;28;20504;-78
2023/06/29 09:41:48;;;;;;;13.33;11.70;;;39.30;49.40;;;;;;5055342;28;20671;-78
2023/06/29 09:44:17;;;;;;;17.07;13.77;;;38.90;45.60;;;;;;5054870;28;20707;-78
2023/06/29 09:46:42;;;;;;;17.33;13.03;;;38.00;42.00;;;;;;5054770;28;20436;-78
2023/06/29 09:49:08;;;;;;;17.67;13.40;;;36.90;39.90;;;;;;5051296;28;20458;-78
2023/06/29 09:51:34;;;;;;;15.97;14.10;;;35.90;37.40;;;;;;5052247;28;20209;-78
2023/06/29 09:54:03;;;;;;;15.80;13.60;;;34.80;35.90;;;;;;5053486;28;20424;-77
2023/06/29 09:56:30;;;;;;;19.03;14.00;;;33.90;35.50;;;;;;5062084;28;20237;-80
2023/06/29 09:58:56;;;;;;;18.90;14.83;;;33.30;36.00;;;;;;5060680;28;20436;-80
2023/06/29 10:01:28;;;;;;;21.53;14.80;;;32.60;35.50;;;;;;5058477;28;20519;-80
2023/06/29 10:03:54;;;;;;;16.77;13.40;;;32.00;36.70;;;;;;5060270;28;20416;-79
2023/06/29 10:06:23;;;;;;;18.33;13.50;;;31.60;38.50;;;;;;5055020;28;20542;-80
2023/06/29 10:08:54;;;;;;;19.50;14.23;;;31.20;39.20;;;;;;5058980;28;20436;-80
2023/06/29 10:11:21;;;;;;;21.17;12.83;;;30.90;40.00;;;;;;5057423;28;20475;-80
2023/06/29 10:13:49;;;;;;;15.83;12.93;;;30.50;53.40;;;;;;5058428;28;20510;-80
2023/06/29 10:16:17;;;;;;;20.40;15.53;;;30.10;42.30;;;;;;5058403;28;20473;-80
2023/06/29 10:18:47;;;;;;;17.20;13.60;;;29.90;44.00;;;;;;5058654;28;20443;-80
2023/06/29 10:21:13;;;;;;;21.23;15.23;;;29.70;45.50;;;;;;5058778;28;20404;-80
2023/06/29 10:23:41;;;;;;;23.23;14.27;;;29.50;46.20;;;;;;5050579;28;20808;-80
2023/06/29 10:26:09;;;;;;;20.50;14.87;;;29.20;47.40;;;;;;5058555;28;20933;-79
2023/06/29 10:28:35;;;;;;;19.37;14.53;;;29.00;49.40;;;;;;5056851;28;20428;-80
2023/06/29 10:31:01;;;;;;;22.77;14.40;;;28.80;51.60;;;;;;5058538;28;20471;-79
2023/06/29 10:33:26;;;;;;;19.67;14.60;;;28.70;52.60;;;;;;5055052;28;20440;-81
2023/06/29 10:36:01;;;;;;;21.90;15.07;;;28.50;53.60;;;;;;5058868;28;20226;-80
2023/06/29 10:38:35;;;;;;;19.90;15.40;;;28.50;55.30;;;;;;5057193;28;20435;-80
2023/06/29 10:41:06;;;;;;;19.30;14.17;;;28.70;57.70;;;;;;5058648;28;20424;-80
2023/06/29 10:44:00;;;;;;;19.27;14.80;;;29.00;61.10;;;;;;5057515;28;20424;-80
2023/06/29 10:46:44;;;;;;;16.77;13.40;;;29.50;64.00;;;;;;5058204;28;20471;-80
2023/06/29 10:49:39;;;;;;;21.43;14.40;;;29.90;66.80;;;;;;5055419;28;20439;-80
2023/06/29 10:52:04;;;;;;;22.87;15.73;;;30.30;67.90;;;;;;5029788;28;21039;-79
2023/06/29 10:54:30;;;;;;;18.90;15.53;;;30.60;69.90;;;;;;5051751;28;20455;-80
2023/06/29 10:56:58;;;;;;;20.93;15.40;;;31.00;71.80;;;;;;5053609;28;20188;-80
2023/06/29 10:59:23;;;;;;;18.93;13.80;;;31.40;72.50;;;;;;5053953;28;20204;-79
2023/06/29 11:01:50;;;;;;;18.67;13.40;;;31.80;72.40;;;;;;5054312;28;20420;-80
2023/06/29 11:04:16;;;;;;;18.87;14.83;;;32.00;71.90;;;;;;5054971;28;20306;-80
2023/06/29 11:06:42;;;;;;;24.20;13.33;;;32.20;70.30;;;;;;5054409;28;20533;-80
2023/06/29 11:09:14;;;;;;;14.40;12.93;;;32.70;70.00;;;;;;5051376;28;20678;-79
2023/06/29 11:11:46;;;;;;;15.57;13.73;;;33.30;70.50;;;;;;5028377;28;20694;-80
2023/06/29 11:14:12;;;;;;;19.03;15.00;;;33.70;69.20;;;;;;5056546;28;20447;-80
2023/06/29 11:16:39;;;;;;;17.23;15.00;;;33.80;67.40;;;;;;5055414;28;20408;-79
2023/06/29 11:19:04;;;;;;;18.43;15.70;;;33.80;64.20;;;;;;5053628;28;20444;-80
2023/06/29 11:21:30;;;;;;;16.37;14.57;;;33.40;60.40;;;;;;5035636;28;20519;-80
2023/06/29 11:23:55;;;;;;;18.40;15.30;;;33.00;59.00;;;;;;5052071;28;20185;-80
2023/06/29 11:26:22;;;;;;;18.00;13.93;;;32.60;58.00;;;;;;5053791;28;20753;-80
2023/06/29 11:28:49;;;;;;;18.63;14.13;;;32.30;56.20;;;;;;5052442;28;20204;-79
2023/06/29 11:31:18;;;;;;;17.73;14.63;;;32.10;56.20;;;;;;5053569;28;20467;-80
2023/06/29 11:33:51;;;;;;;21.63;16.37;;;31.90;54.70;;;;;;5055413;28;20408;-80
2023/06/29 11:36:31;;;;;;;18.27;15.37;;;31.60;54.80;;;;;;5057636;28;20428;-80
2023/06/29 11:39:11;;;;;;;18.73;15.37;;;31.60;54.80;;;;;;5057706;28;20868;-80
2023/06/29 11:41:38;;;;;;;19.13;15.70;;;31.40;55.30;;;;;;5037519;28;20513;-80
2023/06/29 11:44:04;;;;;;;20.40;17.20;;;31.20;53.80;;;;;;5057614;28;20507;-80
2023/06/29 11:46:33;;;;;;;21.57;17.37;;;31.10;54.30;;;;;;5055838;28;20477;-80
2023/06/29 11:49:00;;;;;;;20.87;17.50;;;30.80;54.40;;;;;;5056977;28;20595;-80
2023/06/29 11:51:29;;;;;;;26.40;18.63;;;30.70;54.00;;;;;;5057277;28;20463;-80
2023/06/29 11:53:56;;;;;;;23.87;17.93;;;30.50;54.50;;;;;;5059821;28;20412;-79
2023/06/29 11:56:36;;;;;;;21.30;17.87;;;30.40;54.80;;;;;;5061066;28;21009;-79
2023/06/29 11:59:17;;;;;;;22.97;16.57;;;30.20;54.60;;;;;;5058563;28;20641;-80
2023/06/29 12:01:43;;;;;;;20.10;17.50;;;30.00;55.90;;;;;;5061465;28;20424;-80
2023/06/29 12:04:12;;;;;;;22.50;16.73;;;29.80;56.90;;;;;;5060185;28;20431;-80
2023/06/29 12:06:58;;;;;;;21.50;16.63;;;29.70;57.90;;;;;;5061589;28;20424;-79
2023/06/29 12:09:31;;;;;;;23.03;16.83;;;29.50;57.90;;;;;;5061232;28;20443;-79
2023/06/29 12:12:02;;;;;;;21.20;16.93;;;29.30;57.70;;;;;;5060898;28;20458;-80
2023/06/29 12:14:29;;;;;;;23.80;17.30;;;29.30;58.20;;;;;;5057614;28;20447;-80
2023/06/29 12:16:57;;;;;;;22.20;17.10;;;29.20;58.50;;;;;;5060302;28;20443;-80
2023/06/29 12:19:33;;;;;;;26.13;16.80;;;29.00;59.00;;;;;;5060263;28;20436;-80
2023/06/29 12:21:59;;;;;;;23.93;17.23;;;28.90;60.00;;;;;;5060312;28;20437;-80
2023/06/29 12:24:25;;;;;;;24.13;16.23;;;28.90;60.90;;;;;;5059963;28;20812;-80
2023/06/29 12:26:51;;;;;;;26.30;16.73;;;28.90;62.60;;;;;;5060154;28;20193;-79